createdAt,value
2018-07-08T00:01:04.881Z,22.28
2018-07-08T00:03:33.052Z,22.42
2018-07-08T00:06:01.135Z,22.28
2018-07-08T00:08:29.227Z,22.27
2018-07-08T00:10:58.976Z,22.35
2018-07-08T00:13:27.940Z,22.25
2018-07-08T00:15:56.067Z,22.16
2018-07-08T00:18:24.843Z,22.20
2018-07-08T00:20:54.137Z,22.30
2018-07-08T00:23:22.936Z,22.34
2018-07-08T00:25:51.036Z,22.12
2018-07-08T00:28:19.182Z,22.32
2018-07-08T00:30:47.297Z,22.08
2018-07-08T00:33:15.384Z,22.10
2018-07-08T00:35:43.464Z,22.03
2018-07-08T00:38:11.624Z,21.96
2018-07-08T00:40:39.730Z,22.28
2018-07-08T00:43:07.825Z,22.12
2018-07-08T00:45:35.910Z,21.98
2018-07-08T00:48:04.013Z,21.91
2018-07-08T00:50:32.129Z,21.87
2018-07-08T00:53:00.264Z,21.76
2018-07-08T00:55:28.372Z,22.23
2018-07-08T00:57:56.456Z,21.60
2018-07-08T01:00:29.344Z,21.75
2018-07-08T01:02:58.195Z,21.76
2018-07-08T01:05:26.485Z,21.89
2018-07-08T01:07:54.585Z,21.83
2018-07-08T01:10:22.764Z,21.63
2018-07-08T01:12:50.877Z,21.56
2018-07-08T01:15:18.971Z,21.68
2018-07-08T01:17:47.039Z,21.84
2018-07-08T01:20:15.133Z,21.90
2018-07-08T01:22:43.285Z,21.61
2018-07-08T01:25:14.782Z,21.66
2018-07-08T01:27:42.866Z,21.28
2018-07-08T01:30:12.467Z,21.59
2018-07-08T01:32:40.613Z,21.23
2018-07-08T01:35:08.704Z,21.47
2018-07-08T01:37:36.811Z,21.43
2018-07-08T01:40:05.171Z,21.49
2018-07-08T01:42:33.259Z,21.59
2018-07-08T01:45:01.710Z,21.61
2018-07-08T01:47:29.874Z,21.70
2018-07-08T01:49:58.487Z,21.17
2018-07-08T01:52:26.854Z,21.38
2018-07-08T01:54:55.635Z,21.16
2018-07-08T01:57:24.570Z,21.46
2018-07-08T01:59:53.007Z,21.53
2018-07-08T02:02:21.709Z,21.34
2018-07-08T02:04:50.399Z,21.65
2018-07-08T02:07:18.527Z,21.70
2018-07-08T02:09:47.154Z,21.78
2018-07-08T02:12:15.435Z,21.38
2018-07-08T02:14:43.820Z,20.93
2018-07-08T02:17:11.966Z,21.26
2018-07-08T02:19:40.093Z,21.15
2018-07-08T02:22:08.182Z,21.03
2018-07-08T02:24:36.255Z,20.76
2018-07-08T02:27:04.497Z,21.43
2018-07-08T02:29:32.951Z,20.80
2018-07-08T02:32:01.040Z,20.78
2018-07-08T02:34:29.140Z,21.15
2018-07-08T02:36:57.380Z,20.65
2018-07-08T02:39:25.567Z,20.62
2018-07-08T02:41:53.949Z,20.65
2018-07-08T02:44:22.186Z,20.34
2018-07-08T02:46:50.427Z,20.23
2018-07-08T02:49:19.220Z,20.07
2018-07-08T02:51:47.860Z,20.14
2018-07-08T02:54:16.627Z,19.98
2018-07-08T02:56:44.751Z,19.89
2018-07-08T02:59:12.958Z,20.13
2018-07-08T03:01:41.049Z,19.96
2018-07-08T03:04:09.131Z,20.05
2018-07-08T03:06:37.218Z,20.14
2018-07-08T03:09:06.371Z,20.15
2018-07-08T03:11:34.618Z,20.14
2018-07-08T03:14:02.779Z,20.27
2018-07-08T03:16:30.935Z,19.86
2018-07-08T03:18:59.116Z,19.94
2018-07-08T03:21:27.378Z,19.92
2018-07-08T03:23:55.470Z,19.86
2018-07-08T03:26:23.573Z,19.85
2018-07-08T03:28:51.667Z,19.77
2018-07-08T03:31:19.744Z,19.81
2018-07-08T03:33:47.840Z,20.01
2018-07-08T03:36:16.554Z,19.95
2018-07-08T03:38:44.733Z,19.78
2018-07-08T03:41:12.836Z,19.63
2018-07-08T03:43:40.939Z,19.64
2018-07-08T03:46:09.118Z,19.59
2018-07-08T03:48:37.521Z,19.76
2018-07-08T03:51:06.231Z,19.84
2018-07-08T03:53:34.295Z,19.61
2018-07-08T03:56:02.449Z,19.86
2018-07-08T03:58:31.071Z,19.96
2018-07-08T04:00:59.258Z,19.58
2018-07-08T04:03:27.383Z,19.60
2018-07-08T04:05:55.783Z,19.63
2018-07-08T04:08:23.831Z,19.50
2018-07-08T04:10:52.131Z,19.66
2018-07-08T04:13:20.234Z,19.59
2018-07-08T04:15:48.319Z,19.55
2018-07-08T04:18:16.519Z,19.64
2018-07-08T04:20:44.591Z,19.62
2018-07-08T04:23:12.635Z,19.55
2018-07-08T04:25:40.685Z,19.49
2018-07-08T04:28:08.787Z,19.72
2018-07-08T04:30:36.836Z,19.69
2018-07-08T04:33:04.896Z,19.46
2018-07-08T04:35:32.947Z,19.60
2018-07-08T04:38:01.009Z,19.58
2018-07-08T04:40:29.284Z,19.47
2018-07-08T04:42:57.379Z,19.85
2018-07-08T04:45:25.495Z,19.65
2018-07-08T04:47:53.527Z,19.52
2018-07-08T04:50:21.602Z,19.50
2018-07-08T04:52:49.652Z,19.58
2018-07-08T04:55:17.682Z,19.86
2018-07-08T04:57:45.779Z,19.68
2018-07-08T05:00:13.852Z,19.91
2018-07-08T05:02:41.926Z,19.90
2018-07-08T05:05:09.983Z,19.77
2018-07-08T05:07:38.051Z,19.68
2018-07-08T05:10:06.167Z,20.04
2018-07-08T05:12:34.265Z,19.96
2018-07-08T05:15:02.624Z,19.92
2018-07-08T05:17:30.686Z,20.22
2018-07-08T05:19:59.318Z,20.05
2018-07-08T05:22:27.399Z,19.91
2018-07-08T05:24:55.471Z,19.85
2018-07-08T05:27:23.548Z,20.06
2018-07-08T05:29:51.632Z,19.51
2018-07-08T05:32:19.683Z,20.01
2018-07-08T05:34:47.752Z,20.13
2018-07-08T05:37:15.815Z,20.27
2018-07-08T05:39:43.881Z,20.30
2018-07-08T05:42:11.949Z,20.11
2018-07-08T05:44:40.021Z,20.23
2018-07-08T05:47:08.076Z,20.19
2018-07-08T05:49:36.156Z,20.37
2018-07-08T05:52:04.210Z,20.23
2018-07-08T05:54:32.288Z,20.44
2018-07-08T05:57:00.399Z,20.27
2018-07-08T05:59:28.493Z,20.52
2018-07-08T06:01:56.560Z,20.44
2018-07-08T06:04:24.622Z,20.70
2018-07-08T06:06:52.695Z,20.55
2018-07-08T06:09:20.775Z,20.65
2018-07-08T06:11:48.850Z,20.78
2018-07-08T06:14:16.882Z,20.80
2018-07-08T06:16:44.964Z,20.75
2018-07-08T06:19:13.043Z,21.03
2018-07-08T06:21:41.127Z,21.01
2018-07-08T06:24:09.197Z,20.93
2018-07-08T06:26:37.254Z,21.16
2018-07-08T06:29:05.475Z,21.02
2018-07-08T06:31:33.647Z,21.00
2018-07-08T06:34:01.714Z,21.19
2018-07-08T06:36:29.779Z,21.16
2018-07-08T06:38:57.908Z,21.37
2018-07-08T06:41:26.026Z,21.38
2018-07-08T06:43:54.140Z,21.57
2018-07-08T06:46:22.238Z,21.55
2018-07-08T06:48:50.311Z,21.40
2018-07-08T06:51:18.388Z,21.40
2018-07-08T06:53:46.574Z,21.65
2018-07-08T06:56:14.730Z,21.75
2018-07-08T06:58:42.799Z,21.77
2018-07-08T07:01:10.871Z,21.79
2018-07-08T07:03:38.987Z,21.86
2018-07-08T07:06:07.071Z,21.77
2018-07-08T07:08:35.167Z,21.74
2018-07-08T07:11:03.236Z,21.85
2018-07-08T07:13:31.316Z,21.90
2018-07-08T07:15:59.925Z,22.01
2018-07-08T07:18:28.008Z,22.01
2018-07-08T07:20:56.065Z,22.26
2018-07-08T07:23:24.131Z,22.09
2018-07-08T07:25:52.190Z,21.77
2018-07-08T07:28:20.271Z,22.05
2018-07-08T07:30:48.335Z,21.99
2018-07-08T07:33:16.392Z,22.33
2018-07-08T07:35:44.455Z,22.36
2018-07-08T07:38:12.517Z,22.39
2018-07-08T07:40:40.575Z,22.51
2018-07-08T07:43:08.635Z,22.34
2018-07-08T07:45:36.703Z,22.26
2018-07-08T07:48:05.525Z,22.68
2018-07-08T07:50:33.583Z,22.67
2018-07-08T07:53:01.656Z,22.63
2018-07-08T07:55:30.013Z,22.49
2018-07-08T07:57:58.073Z,22.63
2018-07-08T08:00:26.139Z,22.75
2018-07-08T08:02:54.212Z,22.63
2018-07-08T08:05:22.292Z,22.85
2018-07-08T08:07:50.453Z,22.94
2018-07-08T08:10:18.575Z,23.09
2018-07-08T08:12:46.647Z,23.00
2018-07-08T08:15:14.723Z,22.93
2018-07-08T08:17:42.794Z,23.06
2018-07-08T08:20:11.131Z,23.04
2018-07-08T08:22:39.188Z,23.22
2018-07-08T08:25:07.279Z,23.25
2018-07-08T08:27:35.354Z,23.22
2018-07-08T08:30:03.424Z,23.18
2018-07-08T08:32:31.498Z,23.13
2018-07-08T08:35:01.402Z,23.26
2018-07-08T08:38:00.764Z,23.32
2018-07-08T08:40:30.111Z,23.41
2018-07-08T08:42:58.207Z,23.39
2018-07-08T08:45:27.688Z,23.31
2018-07-08T08:47:55.763Z,23.33
2018-07-08T08:50:23.827Z,23.52
2018-07-08T08:52:51.914Z,23.62
2018-07-08T08:55:20.048Z,23.48
2018-07-08T08:57:48.171Z,23.44
2018-07-08T09:00:18.272Z,23.76
2018-07-08T09:02:46.392Z,23.81
2018-07-08T09:05:14.469Z,23.73
2018-07-08T09:07:42.617Z,23.79
2018-07-08T09:10:10.674Z,23.81
2018-07-08T09:12:38.757Z,24.04
2018-07-08T09:15:06.844Z,23.93
2018-07-08T09:17:34.912Z,23.79
2018-07-08T09:20:03.010Z,23.87
2018-07-08T09:22:31.103Z,24.12
2018-07-08T09:24:59.206Z,24.27
2018-07-08T09:27:27.376Z,24.29
2018-07-08T09:29:55.450Z,24.31
2018-07-08T09:32:23.533Z,24.29
2018-07-08T09:34:51.620Z,24.27
2018-07-08T09:37:19.708Z,24.29
2018-07-08T09:39:48.096Z,24.41
2018-07-08T09:42:16.159Z,24.53
2018-07-08T09:44:44.348Z,24.51
2018-07-08T09:47:13.293Z,24.10
2018-07-08T09:49:41.398Z,24.21
2018-07-08T09:52:09.492Z,24.46
2018-07-08T09:54:37.581Z,24.39
2018-07-08T09:57:05.689Z,24.56
2018-07-08T09:59:33.761Z,24.73
2018-07-08T10:02:01.823Z,24.77
2018-07-08T10:04:30.592Z,24.70
2018-07-08T10:06:58.771Z,24.73
2018-07-08T10:09:26.823Z,24.87
2018-07-08T10:11:54.887Z,25.01
2018-07-08T10:14:24.137Z,25.12
2018-07-08T10:16:52.205Z,25.11
2018-07-08T10:19:20.920Z,25.20
2018-07-08T10:21:48.997Z,25.25
2018-07-08T10:24:17.139Z,25.26
2018-07-08T10:26:46.657Z,25.36
2018-07-08T10:29:17.282Z,25.40
2018-07-08T10:31:51.400Z,25.50
2018-07-08T10:34:19.759Z,25.39
2018-07-08T10:36:47.899Z,25.02
2018-07-08T10:39:16.554Z,24.92
2018-07-08T10:41:44.643Z,25.32
2018-07-08T10:44:13.072Z,25.29
2018-07-08T10:46:41.683Z,25.42
2018-07-08T10:49:10.146Z,25.57
2018-07-08T10:51:38.275Z,25.65
2018-07-08T10:54:06.819Z,25.71
2018-07-08T10:56:34.894Z,25.77
2018-07-08T10:59:02.967Z,26.02
2018-07-08T11:01:31.140Z,26.09
2018-07-08T11:03:59.229Z,26.20
2018-07-08T11:06:27.291Z,26.14
2018-07-08T11:08:55.358Z,26.19
2018-07-08T11:11:23.475Z,26.20
2018-07-08T11:13:51.539Z,26.25
2018-07-08T11:16:19.622Z,26.03
2018-07-08T11:18:47.740Z,25.83
2018-07-08T11:21:15.860Z,26.10
2018-07-08T11:23:43.959Z,26.46
2018-07-08T11:26:12.087Z,26.62
2018-07-08T11:28:40.277Z,26.93
2018-07-08T11:31:08.602Z,27.27
2018-07-08T11:33:36.695Z,27.56
2018-07-08T11:36:04.792Z,27.57
2018-07-08T11:38:33.154Z,27.94
2018-07-08T11:41:01.270Z,28.24
2018-07-08T11:43:29.915Z,28.79
2018-07-08T11:45:57.984Z,29.57
2018-07-08T11:48:26.131Z,30.36
2018-07-08T11:50:54.247Z,30.77
2018-07-08T11:53:22.364Z,31.05
2018-07-08T11:55:50.420Z,31.41
2018-07-08T11:58:18.515Z,31.68
2018-07-08T12:00:46.590Z,31.88
2018-07-08T12:03:14.888Z,32.60
2018-07-08T12:05:43.085Z,33.00
2018-07-08T12:08:11.504Z,33.43
2018-07-08T12:10:40.046Z,33.24
2018-07-08T12:13:08.292Z,33.88
2018-07-08T12:15:36.436Z,34.84
2018-07-08T12:18:04.879Z,35.64
2018-07-08T12:20:33.461Z,35.67
2018-07-08T12:23:01.524Z,34.89
2018-07-08T12:25:29.614Z,35.67
2018-07-08T12:27:57.671Z,35.53
2018-07-08T12:30:25.778Z,35.40
2018-07-08T12:32:53.895Z,35.59
2018-07-08T12:35:22.063Z,35.16
2018-07-08T12:37:50.136Z,36.58
2018-07-08T12:40:18.215Z,36.50
2018-07-08T12:42:46.271Z,36.07
2018-07-08T12:45:14.389Z,36.25
2018-07-08T12:47:42.455Z,36.27
2018-07-08T12:50:10.528Z,36.81
2018-07-08T12:52:38.846Z,37.76
2018-07-08T12:55:06.914Z,38.74
2018-07-08T12:57:35.401Z,37.98
2018-07-08T13:00:03.880Z,37.98
2018-07-08T13:02:31.968Z,38.64
2018-07-08T13:05:00.734Z,38.46
2018-07-08T13:07:28.828Z,37.37
2018-07-08T13:09:56.973Z,38.26
2018-07-08T13:12:25.074Z,37.58
2018-07-08T13:14:53.124Z,38.86
2018-07-08T13:17:21.191Z,39.22
2018-07-08T13:19:49.365Z,38.82
2018-07-08T13:22:17.499Z,40.21
2018-07-08T13:24:45.650Z,37.53
2018-07-08T13:27:13.899Z,39.00
2018-07-08T13:29:41.966Z,39.47
2018-07-08T13:32:10.153Z,38.66
2018-07-08T13:34:38.334Z,40.13
2018-07-08T13:37:06.479Z,40.51
2018-07-08T13:39:34.628Z,40.26
2018-07-08T13:42:02.710Z,41.06
2018-07-08T13:44:31.668Z,41.55
2018-07-08T13:46:59.808Z,41.67
2018-07-08T13:49:27.940Z,40.29
2018-07-08T13:51:55.995Z,41.45
2018-07-08T13:54:24.099Z,39.28
2018-07-08T13:56:52.186Z,40.86
2018-07-08T13:59:20.312Z,39.30
2018-07-08T14:01:48.732Z,37.01
2018-07-08T14:04:16.830Z,36.84
2018-07-08T14:06:44.909Z,38.51
2018-07-08T14:09:13.028Z,40.11
2018-07-08T14:11:41.039Z,39.07
2018-07-08T14:14:09.188Z,40.28
2018-07-08T14:16:37.212Z,39.65
2018-07-08T14:19:05.354Z,38.32
2018-07-08T14:21:33.852Z,38.62
2018-07-08T14:24:01.947Z,38.85
2018-07-08T14:26:29.995Z,38.52
2018-07-08T14:28:58.164Z,38.27
2018-07-08T14:31:26.275Z,39.95
2018-07-08T14:33:54.348Z,38.64
2018-07-08T14:36:22.452Z,37.77
2018-07-08T14:38:50.633Z,37.19
2018-07-08T14:41:18.724Z,38.05
2018-07-08T14:43:46.866Z,39.21
2018-07-08T14:46:15.054Z,39.07
2018-07-08T14:48:43.032Z,39.60
2018-07-08T14:51:11.132Z,40.49
2018-07-08T14:53:39.205Z,41.00
2018-07-08T14:56:07.287Z,41.11
2018-07-08T14:58:35.351Z,40.29
2018-07-08T15:01:03.603Z,41.75
2018-07-08T15:03:31.993Z,40.61
2018-07-08T15:06:00.088Z,38.97
2018-07-08T15:08:28.255Z,40.07
2018-07-08T15:10:56.423Z,41.93
2018-07-08T15:13:24.570Z,41.43
2018-07-08T15:15:52.833Z,40.96
2018-07-08T15:18:20.833Z,39.17
2018-07-08T15:20:48.978Z,39.20
2018-07-08T15:23:17.024Z,40.53
2018-07-08T15:25:45.124Z,41.03
2018-07-08T15:28:13.191Z,41.63
2018-07-08T15:33:32.222Z,41.90
2018-07-08T15:36:00.300Z,41.88
2018-07-08T15:38:28.344Z,42.01
2018-07-08T15:40:56.419Z,43.30
2018-07-08T15:43:24.539Z,43.31
2018-07-08T15:45:52.620Z,42.26
2018-07-08T15:48:20.660Z,40.62
2018-07-08T15:50:48.742Z,41.19
2018-07-08T15:53:16.803Z,42.71
2018-07-08T15:55:44.880Z,43.37
2018-07-08T15:58:13.043Z,42.23
2018-07-08T16:00:41.156Z,42.49
2018-07-08T16:03:09.218Z,42.77
2018-07-08T16:05:37.359Z,41.54
2018-07-08T16:08:05.535Z,39.79
2018-07-08T16:10:33.599Z,38.51
2018-07-08T16:13:02.268Z,36.45
2018-07-08T16:15:30.343Z,35.60
2018-07-08T16:17:58.557Z,35.62
2018-07-08T16:20:26.639Z,35.00
2018-07-08T16:22:55.040Z,35.23
2018-07-08T16:25:23.414Z,34.93
2018-07-08T16:27:51.550Z,34.86
2018-07-08T16:30:19.613Z,34.79
2018-07-08T16:32:47.746Z,34.70
2018-07-08T16:35:15.807Z,33.61
2018-07-08T16:37:43.855Z,33.49
2018-07-08T16:40:14.738Z,33.99
2018-07-08T16:42:43.538Z,34.11
2018-07-08T16:45:11.650Z,33.62
2018-07-08T16:47:39.821Z,33.00
2018-07-08T16:50:07.899Z,33.38
2018-07-08T16:52:35.946Z,33.35
2018-07-08T16:55:04.019Z,33.04
2018-07-08T16:57:32.513Z,32.58
2018-07-08T17:00:00.663Z,32.59
2018-07-08T17:02:28.825Z,32.46
2018-07-08T17:04:56.960Z,32.42
2018-07-08T17:07:25.029Z,32.98
2018-07-08T17:09:53.100Z,32.63
2018-07-08T17:12:21.151Z,32.64
2018-07-08T17:14:49.218Z,32.64
2018-07-08T17:17:17.285Z,32.18
2018-07-08T17:19:45.392Z,32.40
2018-07-08T17:22:13.591Z,32.14
2018-07-08T17:24:42.808Z,32.21
2018-07-08T17:27:10.885Z,32.24
2018-07-08T17:29:39.004Z,32.18
2018-07-08T17:32:07.104Z,31.81
2018-07-08T17:34:35.156Z,31.85
2018-07-08T17:37:03.235Z,32.20
2018-07-08T17:39:31.377Z,31.41
2018-07-08T17:41:59.483Z,31.45
2018-07-08T17:44:27.588Z,31.43
2018-07-08T17:46:55.643Z,31.79
2018-07-08T17:49:23.711Z,31.25
2018-07-08T17:51:51.791Z,31.59
2018-07-08T17:54:21.407Z,31.60
2018-07-08T17:56:49.452Z,31.68
2018-07-08T17:59:17.551Z,31.15
2018-07-08T18:01:45.607Z,31.16
2018-07-08T18:04:13.762Z,30.52
2018-07-08T18:06:41.876Z,30.53
2018-07-08T18:09:09.976Z,30.58
2018-07-08T18:11:38.048Z,30.68
2018-07-08T18:14:06.300Z,29.95
2018-07-08T18:16:34.462Z,29.54
2018-07-08T18:19:02.783Z,29.88
2018-07-08T18:21:30.894Z,29.62
2018-07-08T18:23:59.279Z,29.48
2018-07-08T18:26:27.342Z,29.28
2018-07-08T18:28:55.459Z,29.83
2018-07-08T18:31:23.641Z,30.22
2018-07-08T18:33:51.731Z,30.44
2018-07-08T18:36:19.840Z,30.01
2018-07-08T18:38:47.997Z,30.08
2018-07-08T18:41:16.054Z,29.90
2018-07-08T18:43:44.125Z,29.98
2018-07-08T18:46:12.193Z,29.95
2018-07-08T18:48:40.303Z,29.91
2018-07-08T18:51:08.371Z,29.90
2018-07-08T18:53:36.861Z,30.03
2018-07-08T18:56:05.029Z,29.85
2018-07-08T18:58:33.078Z,29.77
2018-07-08T19:01:01.201Z,29.79
2018-07-08T19:03:29.322Z,29.81
2018-07-08T19:05:57.376Z,29.54
2018-07-08T19:08:25.431Z,29.67
2018-07-08T19:10:53.484Z,29.71
2018-07-08T19:13:21.578Z,29.82
2018-07-08T19:15:49.739Z,29.91
2018-07-08T19:18:17.861Z,29.92
2018-07-08T19:20:45.976Z,29.60
2018-07-08T19:23:14.044Z,29.57
2018-07-08T19:25:42.191Z,29.52
2018-07-08T19:28:10.259Z,28.85
2018-07-08T19:30:38.362Z,29.03
2018-07-08T19:33:06.448Z,29.11
2018-07-08T19:35:34.509Z,29.06
2018-07-08T19:38:03.028Z,29.09
2018-07-08T19:40:31.131Z,29.15
2018-07-08T19:42:59.235Z,29.14
2018-07-08T19:45:27.304Z,29.33
2018-07-08T19:47:55.451Z,28.91
2018-07-08T19:50:23.567Z,28.10
2018-07-08T19:52:51.668Z,28.76
2018-07-08T19:55:19.723Z,28.67
2018-07-08T19:57:47.880Z,28.49
2018-07-08T20:00:15.980Z,28.49
2018-07-08T20:02:44.048Z,28.30
2018-07-08T20:05:12.099Z,28.57
2018-07-08T20:07:40.220Z,27.93
2018-07-08T20:10:08.207Z,27.76
2018-07-08T20:12:36.277Z,28.10
2018-07-08T20:15:04.334Z,27.88
2018-07-08T20:17:33.321Z,27.79
2018-07-08T20:20:01.390Z,27.84
2018-07-08T20:22:29.466Z,27.52
2018-07-08T20:24:57.542Z,27.99
2018-07-08T20:27:25.590Z,27.57
2018-07-08T20:29:53.644Z,27.75
2018-07-08T20:32:21.788Z,27.51
2018-07-08T20:34:49.851Z,27.37
2018-07-08T20:37:17.952Z,27.31
2018-07-08T20:39:46.008Z,27.40
2018-07-08T20:42:14.094Z,27.27
2018-07-08T20:44:42.167Z,26.99
2018-07-08T20:47:10.245Z,27.08
2018-07-08T20:49:38.339Z,27.02
2018-07-08T20:52:06.383Z,26.96
2018-07-08T20:54:34.443Z,27.06
2018-07-08T20:57:03.621Z,27.02
2018-07-08T20:59:31.843Z,26.88
2018-07-08T21:01:59.943Z,26.88
2018-07-08T21:04:28.020Z,26.64
2018-07-08T21:06:56.089Z,26.76
2018-07-08T21:09:24.176Z,26.80
2018-07-08T21:11:52.274Z,26.85
2018-07-08T21:14:20.347Z,26.47
2018-07-08T21:16:48.423Z,26.77
2018-07-08T21:19:16.540Z,26.31
2018-07-08T21:21:44.587Z,26.30
2018-07-08T21:24:12.659Z,26.05
2018-07-08T21:26:40.711Z,26.12
2018-07-08T21:29:08.789Z,25.96
2018-07-08T21:31:36.857Z,25.75
2018-07-08T21:34:04.920Z,25.98
2018-07-08T21:36:33.497Z,25.78
2018-07-08T21:39:01.554Z,25.63
2018-07-08T21:41:29.619Z,25.92
2018-07-08T21:43:57.667Z,25.81
2018-07-08T21:46:25.728Z,25.57
2018-07-08T21:48:53.798Z,25.56
2018-07-08T21:51:21.864Z,25.87
2018-07-08T21:53:49.946Z,25.71
2018-07-08T21:56:18.050Z,25.41
2018-07-08T21:58:46.152Z,25.46
2018-07-08T22:01:16.204Z,25.29
2018-07-08T22:03:44.923Z,25.39
2018-07-08T22:06:13.528Z,25.73
2018-07-08T22:08:41.591Z,25.42
2018-07-08T22:11:10.167Z,25.63
2018-07-08T22:13:38.849Z,25.84
2018-07-08T22:16:07.049Z,26.04
2018-07-08T22:18:35.476Z,26.19
2018-07-08T22:21:04.295Z,26.48
2018-07-08T22:23:32.768Z,26.07
2018-07-08T22:26:01.209Z,26.01
2018-07-08T22:28:29.417Z,25.79
2018-07-08T22:30:57.477Z,25.88
2018-07-08T22:33:25.579Z,25.64
2018-07-08T22:35:53.654Z,25.08
2018-07-08T22:38:21.834Z,25.22
2018-07-08T22:40:49.939Z,25.17
2018-07-08T22:43:18.060Z,24.96
2018-07-08T22:45:46.146Z,25.04
2018-07-08T22:48:14.251Z,24.95
2018-07-08T22:50:42.291Z,25.09
2018-07-08T22:53:10.367Z,24.87
2018-07-08T22:55:38.416Z,24.84
2018-07-08T22:58:06.550Z,25.15
2018-07-08T23:00:46.020Z,25.12
2018-07-08T23:04:25.149Z,24.58
2018-07-08T23:06:53.294Z,24.72
2018-07-08T23:09:22.077Z,24.72
2018-07-08T23:11:50.788Z,24.55
2018-07-08T23:14:20.592Z,24.22
2018-07-08T23:16:51.257Z,24.20
2018-07-08T23:19:19.687Z,24.11
2018-07-08T23:21:48.446Z,24.36
2018-07-08T23:24:16.542Z,24.47
2018-07-08T23:26:44.680Z,24.36
2018-07-08T23:29:12.740Z,24.83
2018-07-08T23:31:40.875Z,24.20
2018-07-08T23:34:08.900Z,24.69
2018-07-08T23:36:37.595Z,24.42
2018-07-08T23:39:06.131Z,24.46
2018-07-08T23:41:34.574Z,24.00
2018-07-08T23:44:02.688Z,24.11
2018-07-08T23:46:30.810Z,24.24
2018-07-08T23:48:59.796Z,23.98
2018-07-08T23:51:28.155Z,24.14
2018-07-08T23:53:56.289Z,24.27
2018-07-08T23:56:24.611Z,23.68
2018-07-08T23:58:52.999Z,23.79
